sensor_id;sensor_type;location;lat;lon;timestamp;P1;durP1;ratioP1;P2;durP2;ratioP2
17449;SDS011;8842;51.244;7.102;2023-03-01T00:04:00;9.53;;;9.03;;
17449;SDS011;8842;51.244;7.102;2023-03-01T00:09:04;9.50;;;9.00;;
17449;SDS011;8842;51.244;7.102;2023-03-01T00:14:08;9.50;;;9.00;;
17449;SDS011;8842;51.244;7.102;2023-03-01T00:19:12;10.57;;;9.97;;
17449;SDS011;8842;51.244;7.102;2023-03-01T00:24:18;10.13;;;9.40;;
17449;SDS011;8842;51.244;7.102;2023-03-01T00:29:22;10.40;;;9.87;;
17449;SDS011;8842;51.244;7.102;2023-03-01T00:34:26;10.17;;;9.67;;
17449;SDS011;8842;51.244;7.102;2023-03-01T00:39:31;10.00;;;9.50;;
17449;SDS011;8842;51.244;7.102;2023-03-01T00:44:42;9.90;;;9.40;;
17449;SDS011;8842;51.244;7.102;2023-03-01T00:49:46;10.30;;;9.70;;
17449;SDS011;8842;51.244;7.102;2023-03-01T00:54:52;10.10;;;9.60;;
17449;SDS011;8842;51.244;7.102;2023-03-01T00:59:56;10.13;;;9.63;;
17449;SDS011;8842;51.244;7.102;2023-03-01T01:05:00;11.00;;;10.10;;
17449;SDS011;8842;51.244;7.102;2023-03-01T01:10:05;10.30;;;9.80;;
17449;SDS011;8842;51.244;7.102;2023-03-01T01:15:10;10.27;;;9.77;;
17449;SDS011;8842;51.244;7.102;2023-03-01T01:20:17;10.10;;;9.60;;
17449;SDS011;8842;51.244;7.102;2023-03-01T01:25:21;10.30;;;9.80;;
17449;SDS011;8842;51.244;7.102;2023-03-01T01:30:27;10.43;;;9.93;;
17449;SDS011;8842;51.244;7.102;2023-03-01T01:35:31;10.23;;;9.67;;
17449;SDS011;8842;51.244;7.102;2023-03-01T01:40:35;10.23;;;9.73;;
17449;SDS011;8842;51.244;7.102;2023-03-01T01:45:46;10.53;;;10.03;;
17449;SDS011;8842;51.244;7.102;2023-03-01T01:50:53;10.80;;;10.20;;
17449;SDS011;8842;51.244;7.102;2023-03-01T01:56:00;10.97;;;10.37;;
17449;SDS011;8842;51.244;7.102;2023-03-01T02:01:04;10.57;;;10.07;;
17449;SDS011;8842;51.244;7.102;2023-03-01T02:06:12;10.77;;;10.17;;
17449;SDS011;8842;51.244;7.102;2023-03-01T02:11:18;11.00;;;10.40;;
17449;SDS011;8842;51.244;7.102;2023-03-01T02:16:23;10.20;;;9.70;;
17449;SDS011;8842;51.244;7.102;2023-03-01T02:21:35;10.50;;;10.00;;
17449;SDS011;8842;51.244;7.102;2023-03-01T02:26:45;10.77;;;10.00;;
17449;SDS011;8842;51.244;7.102;2023-03-01T02:31:51;10.40;;;9.90;;
17449;SDS011;8842;51.244;7.102;2023-03-01T02:37:01;9.67;;;9.17;;
17449;SDS011;8842;51.244;7.102;2023-03-01T02:42:07;8.87;;;8.47;;
17449;SDS011;8842;51.244;7.102;2023-03-01T02:47:15;8.70;;;8.30;;
17449;SDS011;8842;51.244;7.102;2023-03-01T02:52:23;9.20;;;8.70;;
17449;SDS011;8842;51.244;7.102;2023-03-01T02:57:36;8.43;;;8.03;;
17449;SDS011;8842;51.244;7.102;2023-03-01T03:02:43;9.63;;;8.83;;
17449;SDS011;8842;51.244;7.102;2023-03-01T03:07:48;9.23;;;8.67;;
17449;SDS011;8842;51.244;7.102;2023-03-01T03:12:53;8.93;;;8.43;;
17449;SDS011;8842;51.244;7.102;2023-03-01T03:17:59;17.80;;;9.83;;
17449;SDS011;8842;51.244;7.102;2023-03-01T03:23:03;9.00;;;8.40;;
17449;SDS011;8842;51.244;7.102;2023-03-01T03:28:07;9.43;;;8.73;;
17449;SDS011;8842;51.244;7.102;2023-03-01T03:33:12;8.17;;;7.70;;
17449;SDS011;8842;51.244;7.102;2023-03-01T03:38:17;8.57;;;8.17;;
17449;SDS011;8842;51.244;7.102;2023-03-01T03:43:24;9.53;;;8.93;;
17449;SDS011;8842;51.244;7.102;2023-03-01T03:48:28;9.63;;;9.13;;
17449;SDS011;8842;51.244;7.102;2023-03-01T03:53:32;9.07;;;8.60;;
17449;SDS011;8842;51.244;7.102;2023-03-01T03:58:36;8.70;;;8.30;;
17449;SDS011;8842;51.244;7.102;2023-03-01T04:03:41;8.50;;;8.10;;
17449;SDS011;8842;51.244;7.102;2023-03-01T04:08:47;8.60;;;8.20;;
17449;SDS011;8842;51.244;7.102;2023-03-01T04:13:54;9.97;;;9.37;;
17449;SDS011;8842;51.244;7.102;2023-03-01T04:19:00;9.10;;;8.60;;
17449;SDS011;8842;51.244;7.102;2023-03-01T04:24:11;8.57;;;8.13;;
17449;SDS011;8842;51.244;7.102;2023-03-01T04:29:16;9.50;;;8.80;;
17449;SDS011;8842;51.244;7.102;2023-03-01T04:34:20;8.60;;;8.20;;
17449;SDS011;8842;51.244;7.102;2023-03-01T04:39:24;9.50;;;8.90;;
17449;SDS011;8842;51.244;7.102;2023-03-01T04:44:28;9.30;;;8.80;;
17449;SDS011;8842;51.244;7.102;2023-03-01T04:49:32;8.67;;;8.27;;
17449;SDS011;8842;51.244;7.102;2023-03-01T04:54:36;9.20;;;8.70;;
17449;SDS011;8842;51.244;7.102;2023-03-01T04:59:40;9.40;;;8.90;;
17449;SDS011;8842;51.244;7.102;2023-03-01T05:04:44;10.87;;;10.27;;
17449;SDS011;8842;51.244;7.102;2023-03-01T05:09:48;10.63;;;9.60;;
17449;SDS011;8842;51.244;7.102;2023-03-01T05:14:52;9.47;;;8.97;;
17449;SDS011;8842;51.244;7.102;2023-03-01T05:19:56;11.57;;;10.70;;
17449;SDS011;8842;51.244;7.102;2023-03-01T05:25:02;9.77;;;9.27;;
17449;SDS011;8842;51.244;7.102;2023-03-01T05:30:12;9.57;;;9.07;;
17449;SDS011;8842;51.244;7.102;2023-03-01T05:35:17;10.30;;;9.80;;
17449;SDS011;8842;51.244;7.102;2023-03-01T05:40:22;11.50;;;10.80;;
17449;SDS011;8842;51.244;7.102;2023-03-01T05:45:27;9.70;;;9.20;;
17449;SDS011;8842;51.244;7.102;2023-03-01T05:50:33;10.13;;;9.37;;
17449;SDS011;8842;51.244;7.102;2023-03-01T05:55:38;11.17;;;10.50;;
17449;SDS011;8842;51.244;7.102;2023-03-01T06:00:43;9.90;;;9.40;;
17449;SDS011;8842;51.244;7.102;2023-03-01T06:05:48;10.40;;;9.70;;
17449;SDS011;8842;51.244;7.102;2023-03-01T06:10:52;11.93;;;11.07;;
17449;SDS011;8842;51.244;7.102;2023-03-01T06:15:57;11.10;;;10.50;;
17449;SDS011;8842;51.244;7.102;2023-03-01T06:21:01;11.07;;;10.47;;
17449;SDS011;8842;51.244;7.102;2023-03-01T06:26:05;11.57;;;10.73;;
17449;SDS011;8842;51.244;7.102;2023-03-01T06:31:10;11.73;;;10.83;;
17449;SDS011;8842;51.244;7.102;2023-03-01T06:36:14;11.90;;;11.00;;
17449;SDS011;8842;51.244;7.102;2023-03-01T06:41:20;11.70;;;11.00;;
17449;SDS011;8842;51.244;7.102;2023-03-01T06:46:24;10.50;;;9.70;;
17449;SDS011;8842;51.244;7.102;2023-03-01T06:51:28;11.43;;;10.73;;
17449;SDS011;8842;51.244;7.102;2023-03-01T06:56:33;10.40;;;9.87;;
17449;SDS011;8842;51.244;7.102;2023-03-01T07:01:37;10.90;;;10.30;;
17449;SDS011;8842;51.244;7.102;2023-03-01T07:06:41;10.70;;;10.10;;
17449;SDS011;8842;51.244;7.102;2023-03-01T07:11:53;13.27;;;10.57;;
17449;SDS011;8842;51.244;7.102;2023-03-01T07:16:57;11.80;;;11.00;;
17449;SDS011;8842;51.244;7.102;2023-03-01T07:22:02;13.17;;;12.07;;
17449;SDS011;8842;51.244;7.102;2023-03-01T07:27:09;10.63;;;10.03;;
17449;SDS011;8842;51.244;7.102;2023-03-01T07:32:13;11.03;;;10.43;;
17449;SDS011;8842;51.244;7.102;2023-03-01T07:37:17;12.63;;;11.73;;
17449;SDS011;8842;51.244;7.102;2023-03-01T07:42:21;10.93;;;10.17;;
17449;SDS011;8842;51.244;7.102;2023-03-01T07:47:25;11.37;;;10.73;;
17449;SDS011;8842;51.244;7.102;2023-03-01T07:52:29;11.37;;;10.57;;
17449;SDS011;8842;51.244;7.102;2023-03-01T07:57:33;11.97;;;10.80;;
17449;SDS011;8842;51.244;7.102;2023-03-01T08:02:45;12.20;;;11.50;;
17449;SDS011;8842;51.244;7.102;2023-03-01T08:07:49;11.37;;;10.77;;
17449;SDS011;8842;51.244;7.102;2023-03-01T08:12:53;13.40;;;12.00;;
17449;SDS011;8842;51.244;7.102;2023-03-01T08:17:57;12.57;;;11.77;;
17449;SDS011;8842;51.244;7.102;2023-03-01T08:23:01;12.70;;;11.60;;
17449;SDS011;8842;51.244;7.102;2023-03-01T08:28:13;14.00;;;12.67;;
17449;SDS011;8842;51.244;7.102;2023-03-01T08:33:17;12.87;;;11.97;;
17449;SDS011;8842;51.244;7.102;2023-03-01T08:38:21;12.83;;;11.93;;
17449;SDS011;8842;51.244;7.102;2023-03-01T08:43:25;13.33;;;12.57;;
17449;SDS011;8842;51.244;7.102;2023-03-01T08:48:29;13.60;;;12.80;;
17449;SDS011;8842;51.244;7.102;2023-03-01T08:53:33;14.10;;;13.20;;
17449;SDS011;8842;51.244;7.102;2023-03-01T08:58:37;13.43;;;12.53;;
17449;SDS011;8842;51.244;7.102;2023-03-01T09:03:49;15.57;;;14.30;;
17449;SDS011;8842;51.244;7.102;2023-03-01T09:08:53;12.47;;;11.77;;
17449;SDS011;8842;51.244;7.102;2023-03-01T09:13:57;15.47;;;14.20;;
17449;SDS011;8842;51.244;7.102;2023-03-01T09:19:09;15.90;;;14.60;;
17449;SDS011;8842;51.244;7.102;2023-03-01T09:24:14;13.33;;;12.63;;
17449;SDS011;8842;51.244;7.102;2023-03-01T09:29:18;14.47;;;13.57;;
17449;SDS011;8842;51.244;7.102;2023-03-01T09:34:30;13.07;;;12.23;;
17449;SDS011;8842;51.244;7.102;2023-03-01T09:39:36;14.40;;;13.10;;
17449;SDS011;8842;51.244;7.102;2023-03-01T09:44:41;12.93;;;12.10;;
17449;SDS011;8842;51.244;7.102;2023-03-01T09:49:57;14.17;;;13.17;;
17449;SDS011;8842;51.244;7.102;2023-03-01T09:55:09;13.70;;;12.50;;
17449;SDS011;8842;51.244;7.102;2023-03-01T10:00:28;13.10;;;12.20;;
17449;SDS011;8842;51.244;7.102;2023-03-01T10:05:44;12.60;;;11.77;;
17449;SDS011;8842;51.244;7.102;2023-03-01T10:10:52;13.07;;;12.07;;
17449;SDS011;8842;51.244;7.102;2023-03-01T10:16:09;14.73;;;13.73;;
17449;SDS011;8842;51.244;7.102;2023-03-01T10:21:15;13.10;;;11.83;;
17449;SDS011;8842;51.244;7.102;2023-03-01T10:26:32;12.13;;;11.47;;
17449;SDS011;8842;51.244;7.102;2023-03-01T10:36:55;13.03;;;12.33;;
17449;SDS011;8842;51.244;7.102;2023-03-01T10:42:00;12.00;;;11.30;;
17449;SDS011;8842;51.244;7.102;2023-03-01T10:47:18;10.57;;;10.00;;
17449;SDS011;8842;51.244;7.102;2023-03-01T10:52:24;12.17;;;11.37;;
17449;SDS011;8842;51.244;7.102;2023-03-01T10:57:37;12.33;;;11.63;;
17449;SDS011;8842;51.244;7.102;2023-03-01T11:02:45;13.87;;;12.40;;
17449;SDS011;8842;51.244;7.102;2023-03-01T11:07:52;12.30;;;11.60;;
17449;SDS011;8842;51.244;7.102;2023-03-01T11:13:08;13.77;;;12.47;;
17449;SDS011;8842;51.244;7.102;2023-03-01T11:18:21;12.37;;;11.67;;
17449;SDS011;8842;51.244;7.102;2023-03-01T11:23:33;12.33;;;11.43;;
17449;SDS011;8842;51.244;7.102;2023-03-01T11:28:39;11.90;;;11.20;;
17449;SDS011;8842;51.244;7.102;2023-03-01T11:33:54;13.80;;;12.73;;
17449;SDS011;8842;51.244;7.102;2023-03-01T11:39:03;11.60;;;11.00;;
17449;SDS011;8842;51.244;7.102;2023-03-01T11:44:18;12.40;;;11.70;;
17449;SDS011;8842;51.244;7.102;2023-03-01T11:49:38;12.80;;;12.00;;
17449;SDS011;8842;51.244;7.102;2023-03-01T11:55:04;13.57;;;12.70;;
17449;SDS011;8842;51.244;7.102;2023-03-01T12:00:15;12.53;;;11.83;;
17449;SDS011;8842;51.244;7.102;2023-03-01T12:05:43;11.97;;;11.37;;
17449;SDS011;8842;51.244;7.102;2023-03-01T12:11:09;14.17;;;13.17;;
17449;SDS011;8842;51.244;7.102;2023-03-01T12:16:23;12.00;;;11.30;;
17449;SDS011;8842;51.244;7.102;2023-03-01T12:21:49;13.23;;;12.40;;
17449;SDS011;8842;51.244;7.102;2023-03-01T12:27:03;12.20;;;11.60;;
17449;SDS011;8842;51.244;7.102;2023-03-01T12:32:23;12.70;;;12.00;;
17449;SDS011;8842;51.244;7.102;2023-03-01T12:37:35;11.33;;;10.73;;
17449;SDS011;8842;51.244;7.102;2023-03-01T12:42:46;11.73;;;11.13;;
17449;SDS011;8842;51.244;7.102;2023-03-01T12:48:07;13.73;;;12.93;;
17449;SDS011;8842;51.244;7.102;2023-03-01T12:53:22;12.80;;;12.10;;
17449;SDS011;8842;51.244;7.102;2023-03-01T12:58:39;14.20;;;13.37;;
17449;SDS011;8842;51.244;7.102;2023-03-01T13:03:51;13.30;;;12.50;;
17449;SDS011;8842;51.244;7.102;2023-03-01T13:09:10;12.90;;;12.20;;
17449;SDS011;8842;51.244;7.102;2023-03-01T13:14:35;13.00;;;12.30;;
17449;SDS011;8842;51.244;7.102;2023-03-01T13:19:41;12.93;;;12.23;;
17449;SDS011;8842;51.244;7.102;2023-03-01T13:25:01;16.93;;;15.53;;
17449;SDS011;8842;51.244;7.102;2023-03-01T13:30:12;13.07;;;12.37;;
17449;SDS011;8842;51.244;7.102;2023-03-01T13:35:43;12.77;;;12.07;;
17449;SDS011;8842;51.244;7.102;2023-03-01T13:40:57;12.23;;;11.57;;
17449;SDS011;8842;51.244;7.102;2023-03-01T13:46:07;13.30;;;12.60;;
17449;SDS011;8842;51.244;7.102;2023-03-01T13:51:21;13.50;;;12.80;;
17449;SDS011;8842;51.244;7.102;2023-03-01T13:56:29;15.10;;;14.20;;
17449;SDS011;8842;51.244;7.102;2023-03-01T14:01:51;16.83;;;15.53;;
17449;SDS011;8842;51.244;7.102;2023-03-01T14:07:10;12.80;;;12.10;;
17449;SDS011;8842;51.244;7.102;2023-03-01T14:12:19;12.97;;;12.27;;
17449;SDS011;8842;51.244;7.102;2023-03-01T14:17:47;13.70;;;12.70;;
17449;SDS011;8842;51.244;7.102;2023-03-01T14:23:08;13.33;;;12.20;;
17449;SDS011;8842;51.244;7.102;2023-03-01T14:28:20;12.57;;;11.87;;
17449;SDS011;8842;51.244;7.102;2023-03-01T14:33:28;13.63;;;12.73;;
17449;SDS011;8842;51.244;7.102;2023-03-01T14:38:43;14.93;;;13.70;;
17449;SDS011;8842;51.244;7.102;2023-03-01T14:43:50;15.10;;;14.10;;
17449;SDS011;8842;51.244;7.102;2023-03-01T14:49:03;13.57;;;12.87;;
17449;SDS011;8842;51.244;7.102;2023-03-01T14:54:18;16.27;;;14.97;;
17449;SDS011;8842;51.244;7.102;2023-03-01T14:59:25;14.27;;;13.30;;
17449;SDS011;8842;51.244;7.102;2023-03-01T15:04:37;15.37;;;14.03;;
17449;SDS011;8842;51.244;7.102;2023-03-01T15:09:42;14.07;;;13.27;;
17449;SDS011;8842;51.244;7.102;2023-03-01T15:14:48;13.70;;;12.83;;
17449;SDS011;8842;51.244;7.102;2023-03-01T15:19:52;13.43;;;12.63;;
17449;SDS011;8842;51.244;7.102;2023-03-01T15:24:56;12.80;;;12.10;;
17449;SDS011;8842;51.244;7.102;2023-03-01T15:30:02;12.87;;;11.93;;
17449;SDS011;8842;51.244;7.102;2023-03-01T15:40:48;11.30;;;10.43;;
17449;SDS011;8842;51.244;7.102;2023-03-01T15:45:56;12.10;;;11.50;;
17449;SDS011;8842;51.244;7.102;2023-03-01T15:51:00;11.10;;;10.50;;
17449;SDS011;8842;51.244;7.102;2023-03-01T15:56:05;12.47;;;11.40;;
17449;SDS011;8842;51.244;7.102;2023-03-01T16:01:11;12.60;;;11.90;;
17449;SDS011;8842;51.244;7.102;2023-03-01T16:06:17;14.00;;;13.20;;
17449;SDS011;8842;51.244;7.102;2023-03-01T16:11:21;12.80;;;12.10;;
17449;SDS011;8842;51.244;7.102;2023-03-01T16:16:25;16.43;;;15.00;;
17449;SDS011;8842;51.244;7.102;2023-03-01T16:21:29;13.13;;;12.27;;
17449;SDS011;8842;51.244;7.102;2023-03-01T16:26:33;12.47;;;11.77;;
17449;SDS011;8842;51.244;7.102;2023-03-01T16:31:37;14.27;;;13.17;;
17449;SDS011;8842;51.244;7.102;2023-03-01T16:36:43;12.60;;;11.90;;
17449;SDS011;8842;51.244;7.102;2023-03-01T16:41:48;12.00;;;11.40;;
17449;SDS011;8842;51.244;7.102;2023-03-01T16:46:52;11.80;;;11.20;;
17449;SDS011;8842;51.244;7.102;2023-03-01T16:52:06;11.10;;;10.50;;
17449;SDS011;8842;51.244;7.102;2023-03-01T16:57:10;11.40;;;10.80;;
17449;SDS011;8842;51.244;7.102;2023-03-01T17:02:26;11.10;;;10.50;;
17449;SDS011;8842;51.244;7.102;2023-03-01T17:07:30;10.77;;;10.23;;
17449;SDS011;8842;51.244;7.102;2023-03-01T17:12:36;10.93;;;10.23;;
17449;SDS011;8842;51.244;7.102;2023-03-01T17:17:40;11.10;;;10.50;;
17449;SDS011;8842;51.244;7.102;2023-03-01T17:22:44;11.80;;;11.20;;
17449;SDS011;8842;51.244;7.102;2023-03-01T17:27:48;11.40;;;10.80;;
17449;SDS011;8842;51.244;7.102;2023-03-01T17:32:52;10.90;;;10.30;;
17449;SDS011;8842;51.244;7.102;2023-03-01T17:37:57;11.00;;;10.40;;
17449;SDS011;8842;51.244;7.102;2023-03-01T17:43:01;11.20;;;10.60;;
17449;SDS011;8842;51.244;7.102;2023-03-01T17:48:06;10.80;;;10.20;;
17449;SDS011;8842;51.244;7.102;2023-03-01T17:53:10;10.20;;;9.70;;
17449;SDS011;8842;51.244;7.102;2023-03-01T17:58:14;11.80;;;11.20;;
17449;SDS011;8842;51.244;7.102;2023-03-01T18:03:20;11.20;;;10.60;;
17449;SDS011;8842;51.244;7.102;2023-03-01T18:08:32;9.13;;;8.60;;
17449;SDS011;8842;51.244;7.102;2023-03-01T18:13:36;12.47;;;11.57;;
17449;SDS011;8842;51.244;7.102;2023-03-01T18:18:41;11.77;;;10.83;;
17449;SDS011;8842;51.244;7.102;2023-03-01T18:23:53;11.90;;;10.87;;
17449;SDS011;8842;51.244;7.102;2023-03-01T18:28:57;12.73;;;11.93;;
17449;SDS011;8842;51.244;7.102;2023-03-01T18:34:02;12.07;;;11.37;;
17449;SDS011;8842;51.244;7.102;2023-03-01T18:39:07;11.03;;;10.43;;
17449;SDS011;8842;51.244;7.102;2023-03-01T18:44:18;12.17;;;11.37;;
17449;SDS011;8842;51.244;7.102;2023-03-01T18:49:22;11.90;;;11.30;;
17449;SDS011;8842;51.244;7.102;2023-03-01T18:54:27;10.97;;;10.37;;
17449;SDS011;8842;51.244;7.102;2023-03-01T18:59:31;11.57;;;10.87;;
17449;SDS011;8842;51.244;7.102;2023-03-01T19:04:35;11.70;;;11.10;;
17449;SDS011;8842;51.244;7.102;2023-03-01T19:09:39;12.57;;;11.87;;
17449;SDS011;8842;51.244;7.102;2023-03-01T19:14:43;12.30;;;11.60;;
17449;SDS011;8842;51.244;7.102;2023-03-01T19:19:47;13.40;;;12.50;;
17449;SDS011;8842;51.244;7.102;2023-03-01T19:24:59;12.93;;;11.80;;
17449;SDS011;8842;51.244;7.102;2023-03-01T19:30:04;12.90;;;12.10;;
17449;SDS011;8842;51.244;7.102;2023-03-01T19:35:10;12.50;;;11.70;;
17449;SDS011;8842;51.244;7.102;2023-03-01T19:40:14;21.20;;;12.07;;
17449;SDS011;8842;51.244;7.102;2023-03-01T19:45:26;12.10;;;11.50;;
17449;SDS011;8842;51.244;7.102;2023-03-01T19:50:30;12.73;;;11.93;;
17449;SDS011;8842;51.244;7.102;2023-03-01T19:55:42;11.83;;;11.23;;
17449;SDS011;8842;51.244;7.102;2023-03-01T20:00:46;12.00;;;11.40;;
17449;SDS011;8842;51.244;7.102;2023-03-01T20:05:57;12.00;;;11.40;;
17449;SDS011;8842;51.244;7.102;2023-03-01T20:11:04;13.23;;;12.30;;
17449;SDS011;8842;51.244;7.102;2023-03-01T20:16:10;13.40;;;12.47;;
17449;SDS011;8842;51.244;7.102;2023-03-01T20:21:27;12.30;;;11.70;;
17449;SDS011;8842;51.244;7.102;2023-03-01T20:26:31;12.90;;;12.10;;
17449;SDS011;8842;51.244;7.102;2023-03-01T20:31:35;12.70;;;11.90;;
17449;SDS011;8842;51.244;7.102;2023-03-01T20:36:41;13.60;;;12.60;;
17449;SDS011;8842;51.244;7.102;2023-03-01T20:41:45;12.43;;;11.70;;
17449;SDS011;8842;51.244;7.102;2023-03-01T20:46:49;12.13;;;11.53;;
17449;SDS011;8842;51.244;7.102;2023-03-01T20:52:01;13.00;;;12.20;;
17449;SDS011;8842;51.244;7.102;2023-03-01T20:57:06;13.57;;;12.67;;
17449;SDS011;8842;51.244;7.102;2023-03-01T21:02:19;12.63;;;11.83;;
17449;SDS011;8842;51.244;7.102;2023-03-01T21:07:23;13.03;;;12.03;;
17449;SDS011;8842;51.244;7.102;2023-03-01T21:12:27;13.17;;;12.27;;
17449;SDS011;8842;51.244;7.102;2023-03-01T21:17:32;12.40;;;11.70;;
17449;SDS011;8842;51.244;7.102;2023-03-01T21:22:38;13.60;;;12.73;;
17449;SDS011;8842;51.244;7.102;2023-03-01T21:27:43;12.33;;;11.63;;
17449;SDS011;8842;51.244;7.102;2023-03-01T21:32:48;12.07;;;11.40;;
17449;SDS011;8842;51.244;7.102;2023-03-01T21:37:53;13.90;;;12.90;;
17449;SDS011;8842;51.244;7.102;2023-03-01T21:42:57;11.93;;;11.33;;
17449;SDS011;8842;51.244;7.102;2023-03-01T21:48:09;12.37;;;11.67;;
17449;SDS011;8842;51.244;7.102;2023-03-01T21:53:13;12.00;;;11.30;;
17449;SDS011;8842;51.244;7.102;2023-03-01T21:58:18;11.80;;;11.20;;
17449;SDS011;8842;51.244;7.102;2023-03-01T22:03:31;12.67;;;11.87;;
17449;SDS011;8842;51.244;7.102;2023-03-01T22:08:36;12.30;;;11.50;;
17449;SDS011;8842;51.244;7.102;2023-03-01T22:13:40;13.10;;;12.27;;
17449;SDS011;8842;51.244;7.102;2023-03-01T22:18:45;11.80;;;11.20;;
17449;SDS011;8842;51.244;7.102;2023-03-01T22:23:57;12.73;;;11.90;;
17449;SDS011;8842;51.244;7.102;2023-03-01T22:29:02;12.20;;;11.50;;
17449;SDS011;8842;51.244;7.102;2023-03-01T22:34:15;12.47;;;11.77;;
17449;SDS011;8842;51.244;7.102;2023-03-01T22:39:19;12.20;;;11.50;;
17449;SDS011;8842;51.244;7.102;2023-03-01T22:44:31;12.73;;;11.50;;
17449;SDS011;8842;51.244;7.102;2023-03-01T22:49:36;12.63;;;11.80;;
17449;SDS011;8842;51.244;7.102;2023-03-01T22:54:40;13.10;;;12.30;;
17449;SDS011;8842;51.244;7.102;2023-03-01T22:59:51;12.10;;;11.40;;
17449;SDS011;8842;51.244;7.102;2023-03-01T23:04:55;12.03;;;11.33;;
17449;SDS011;8842;51.244;7.102;2023-03-01T23:10:00;11.60;;;11.00;;
17449;SDS011;8842;51.244;7.102;2023-03-01T23:15:13;11.70;;;11.00;;
17449;SDS011;8842;51.244;7.102;2023-03-01T23:20:17;12.27;;;11.57;;
17449;SDS011;8842;51.244;7.102;2023-03-01T23:25:21;12.47;;;11.70;;
17449;SDS011;8842;51.244;7.102;2023-03-01T23:30:25;11.40;;;10.80;;
17449;SDS011;8842;51.244;7.102;2023-03-01T23:35:30;11.60;;;10.80;;
17449;SDS011;8842;51.244;7.102;2023-03-01T23:40:41;11.73;;;11.13;;
17449;SDS011;8842;51.244;7.102;2023-03-01T23:45:45;12.80;;;11.57;;
17449;SDS011;8842;51.244;7.102;2023-03-01T23:50:49;13.30;;;12.23;;
17449;SDS011;8842;51.244;7.102;2023-03-01T23:55:54;12.70;;;11.97;;
